Time;durP1;ratioP1;P1;durP2;ratioP2;P2;SDS_P1;SDS_P2;PMS_P1;PMS_P2;Temp;Humidity;BMP_temperature;BMP_pressure;BME280_temperature;BME280_humidity;BME280_pressure;Samples;Min_cycle;Max_cycle;Signal;HPM_P1;HPM_P2
2021/03/13 00:00:33;;;;;;;13.18;2.47;;;6.80;83.50;;;;;;5116245;28;20122;-66
2021/03/13 00:02:59;;;;;;;13.30;3.65;;;6.80;83.60;;;;;;5115760;28;20103;-66
2021/03/13 00:05:34;;;;;;;8.65;2.50;;;6.80;83.70;;;;;;5116537;28;20534;-66
2021/03/13 00:08:00;;;;;;;11.95;2.47;;;6.80;83.80;;;;;;5116014;28;20059;-66
2021/03/13 00:10:26;;;;;;;13.15;2.90;;;6.80;83.90;;;;;;5115380;28;20078;-66
2021/03/13 00:12:52;;;;;;;11.32;3.53;;;6.80;84.00;;;;;;5115932;28;20535;-66
2021/03/13 00:15:18;;;;;;;14.32;2.47;;;6.80;84.20;;;;;;5108278;28;20024;-66
2021/03/13 00:17:52;;;;;;;18.05;2.40;;;6.80;84.30;;;;;;5109220;28;20055;-66
2021/03/13 00:20:23;;;;;;;14.60;3.03;;;6.80;84.40;;;;;;5102540;28;20046;-66
2021/03/13 00:22:49;;;;;;;7.20;1.50;;;6.80;84.40;;;;;;5115960;28;20493;-66
2021/03/13 00:25:15;;;;;;;15.10;3.83;;;6.80;84.40;;;;;;5114916;28;20043;-66
2021/03/13 00:27:47;;;;;;;14.88;3.97;;;6.80;84.40;;;;;;5115673;28;20497;-66
2021/03/13 00:30:16;;;;;;;12.52;2.05;;;6.90;84.50;;;;;;5115781;28;20027;-66
2021/03/13 00:32:42;;;;;;;10.30;2.90;;;6.80;84.50;;;;;;5115040;28;20047;-66
2021/03/13 00:35:09;;;;;;;13.25;2.67;;;6.80;84.60;;;;;;5115613;28;20516;-66
2021/03/13 00:37:34;;;;;;;15.48;2.63;;;6.80;84.80;;;;;;5115231;28;20326;-67
2021/03/13 00:40:01;;;;;;;12.23;3.33;;;6.80;84.90;;;;;;5115419;28;20027;-67
2021/03/13 00:42:26;;;;;;;12.00;2.53;;;6.80;84.90;;;;;;5111029;28;20059;-67
2021/03/13 00:44:52;;;;;;;19.80;3.47;;;6.80;85.00;;;;;;5115033;28;20070;-66
2021/03/13 00:47:18;;;;;;;7.97;2.15;;;6.80;85.10;;;;;;5115354;28;20032;-66
2021/03/13 00:49:43;;;;;;;11.07;3.00;;;6.80;85.20;;;;;;5115320;28;20068;-66
2021/03/13 00:52:09;;;;;;;6.88;1.52;;;6.80;85.30;;;;;;5114715;28;20031;-66
2021/03/13 00:54:35;;;;;;;12.13;3.17;;;6.80;85.30;;;;;;5115325;27;20107;-66
2021/03/13 00:57:01;;;;;;;16.13;2.88;;;6.80;85.30;;;;;;5113946;28;20122;-66
2021/03/13 00:59:26;;;;;;;20.33;2.97;;;6.90;85.40;;;;;;5114519;28;20024;-66
2021/03/13 01:01:52;;;;;;;13.13;3.33;;;6.90;85.50;;;;;;5115179;28;20517;-66
2021/03/13 01:04:18;;;;;;;9.80;2.38;;;6.80;85.50;;;;;;5114983;28;20110;-66
2021/03/13 01:06:43;;;;;;;12.77;2.55;;;6.80;85.60;;;;;;5113253;28;20043;-66
2021/03/13 01:09:09;;;;;;;18.98;2.72;;;6.90;85.70;;;;;;5114813;28;20031;-66
2021/03/13 01:11:38;;;;;;;31.58;2.95;;;6.90;85.70;;;;;;5114725;28;20417;-66
2021/03/13 01:14:12;;;;;;;4.30;1.67;;;6.80;85.60;;;;;;5114259;28;20064;-66
2021/03/13 01:16:44;;;;;;;4.80;1.95;;;6.90;85.60;;;;;;5113610;28;20133;-66
2021/03/13 01:19:10;;;;;;;8.18;2.08;;;6.90;85.50;;;;;;5113654;28;20023;-66
2021/03/13 01:21:56;;;;;;;5.97;2.13;;;7.00;85.50;;;;;;5112654;28;20015;-66
2021/03/13 01:24:23;;;;;;;17.38;3.08;;;7.00;85.40;;;;;;5098778;28;20062;-66
2021/03/13 01:26:48;;;;;;;5.57;2.22;;;7.00;85.20;;;;;;5111054;28;20030;-66
2021/03/13 01:29:14;;;;;;;10.20;2.35;;;7.00;85.10;;;;;;5113160;28;20027;-66
2021/03/13 01:31:48;;;;;;;3.80;2.08;;;7.00;85.10;;;;;;5112980;28;20516;-66
2021/03/13 01:34:19;;;;;;;20.35;2.85;;;7.00;85.00;;;;;;5112530;28;20492;-66
2021/03/13 01:36:52;;;;;;;7.55;1.95;;;7.00;85.00;;;;;;5113036;28;20027;-66
2021/03/13 01:39:17;;;;;;;4.13;1.65;;;7.00;85.00;;;;;;5104403;28;20040;-66
2021/03/13 01:41:46;;;;;;;12.52;3.33;;;7.00;85.10;;;;;;5107367;28;20032;-66
2021/03/13 01:44:12;;;;;;;4.97;1.52;;;7.00;85.10;;;;;;5112942;28;20037;-66
2021/03/13 01:46:38;;;;;;;7.95;2.10;;;7.00;85.30;;;;;;5114153;28;20031;-66
2021/03/13 01:49:03;;;;;;;11.68;3.00;;;7.00;85.40;;;;;;5112144;28;20046;-66
2021/03/13 01:51:33;;;;;;;9.35;2.50;;;7.00;85.60;;;;;;5114121;28;20475;-66
2021/03/13 01:54:05;;;;;;;4.03;1.65;;;6.90;85.50;;;;;;5112903;28;20419;-66
2021/03/13 01:56:34;;;;;;;9.70;2.63;;;7.00;85.50;;;;;;5113432;28;20129;-66
2021/03/13 01:59:00;;;;;;;5.72;1.73;;;7.00;85.50;;;;;;5112625;28;20023;-66
2021/03/13 02:01:40;;;;;;;10.68;2.55;;;7.00;85.40;;;;;;5113903;28;20118;-66
2021/03/13 02:04:07;;;;;;;26.25;3.45;;;7.10;85.40;;;;;;5111781;28;20475;-66
2021/03/13 02:06:33;;;;;;;3.70;1.50;;;7.10;85.30;;;;;;5113888;28;20527;-66
2021/03/13 02:09:18;;;;;;;2.90;1.35;;;7.10;85.20;;;;;;5111937;28;20027;-66
2021/03/13 02:12:07;;;;;;;3.67;1.20;;;7.10;85.20;;;;;;5112516;28;20027;-66
2021/03/13 02:14:35;;;;;;;11.00;2.38;;;7.10;85.00;;;;;;5113868;28;20028;-66
2021/03/13 02:17:09;;;;;;;;;;;7.10;84.90;;;;;;5113682;28;20036;-66
2021/03/13 02:19:58;;;;;;;4.47;1.98;;;7.20;84.80;;;;;;5097959;28;19908;-66
2021/03/13 02:22:27;;;;;;;19.40;3.55;;;7.20;84.50;;;;;;5112442;28;20032;-66
2021/03/13 02:25:15;;;;;;;3.70;2.05;;;7.30;84.50;;;;;;5111762;28;20550;-66
2021/03/13 02:28:02;;;;;;;17.33;2.35;;;7.30;84.40;;;;;;5111351;28;20032;-66
2021/03/13 02:30:31;;;;;;;9.25;3.38;;;7.30;84.30;;;;;;5101457;28;20047;-66
2021/03/13 02:33:28;;;;;;;17.98;3.53;;;7.30;84.30;;;;;;5112177;28;20035;-66
2021/03/13 02:36:09;;;;;;;35.30;4.82;;;7.30;84.30;;;;;;5112190;28;20100;-66
2021/03/13 02:38:52;;;;;;;0.82;0.75;;;7.40;84.30;;;;;;5111381;28;20016;-66
2021/03/13 02:41:30;;;;;;;7.53;3.05;;;7.40;84.20;;;;;;5111940;28;20027;-66
2021/03/13 02:44:01;;;;;;;5.65;2.45;;;7.40;84.10;;;;;;5112233;28;20065;-66
2021/03/13 02:46:33;;;;;;;5.78;1.98;;;7.40;84.00;;;;;;5111203;28;20076;-66
2021/03/13 02:48:59;;;;;;;8.95;2.75;;;7.40;84.00;;;;;;5113191;28;20020;-66
2021/03/13 02:51:27;;;;;;;9.85;3.05;;;7.40;84.00;;;;;;5111596;28;20065;-65
2021/03/13 02:54:01;;;;;;;9.65;3.50;;;7.50;84.10;;;;;;5111839;28;20023;-66
2021/03/13 02:56:27;;;;;;;4.80;1.52;;;7.50;84.60;;;;;;5111578;28;20043;-66
2021/03/13 02:58:56;;;;;;;19.48;4.43;;;7.50;83.90;;;;;;5110970;28;20023;-66
2021/03/13 03:01:28;;;;;;;8.75;2.40;;;7.60;84.00;;;;;;5111952;28;20489;-66
2021/03/13 03:03:58;;;;;;;8.35;1.95;;;7.60;83.90;;;;;;5111659;28;20138;-66
2021/03/13 03:06:36;;;;;;;12.65;3.05;;;7.60;83.70;;;;;;5111217;28;20039;-66
2021/03/13 03:09:06;;;;;;;10.02;2.15;;;7.70;83.80;;;;;;5113055;28;20032;-66
2021/03/13 03:11:39;;;;;;;6.00;1.63;;;7.60;83.50;;;;;;5111837;28;20046;-66
2021/03/13 03:14:05;;;;;;;9.43;2.60;;;7.70;83.50;;;;;;5111007;28;20031;-66
2021/03/13 03:16:39;;;;;;;15.57;3.15;;;7.80;83.50;;;;;;5111628;28;20039;-66
2021/03/13 03:19:05;;;;;;;8.40;1.77;;;7.80;83.40;;;;;;5097378;28;20077;-66
2021/03/13 03:21:39;;;;;;;6.43;2.38;;;7.80;83.20;;;;;;5111182;28;20024;-66
2021/03/13 03:24:08;;;;;;;10.40;3.15;;;7.90;83.10;;;;;;5111693;28;20551;-66
2021/03/13 03:26:35;;;;;;;22.27;4.53;;;7.90;83.10;;;;;;5110862;28;20446;-66
2021/03/13 03:29:01;;;;;;;5.30;1.60;;;7.90;83.20;;;;;;5112411;28;20047;-66
2021/03/13 03:31:37;;;;;;;12.68;2.90;;;8.00;82.90;;;;;;5111242;28;20502;-66
2021/03/13 03:34:05;;;;;;;8.40;2.85;;;8.00;82.70;;;;;;5110633;28;20048;-66
2021/03/13 03:36:32;;;;;;;8.90;2.70;;;8.00;82.50;;;;;;5112751;28;20069;-66
2021/03/13 03:38:58;;;;;;;9.80;2.58;;;8.00;82.20;;;;;;5111413;28;20390;-66
2021/03/13 03:41:35;;;;;;;4.05;2.08;;;8.10;82.20;;;;;;5110610;28;20085;-66
2021/03/13 03:44:27;;;;;;;4.38;1.48;;;8.10;82.20;;;;;;5111530;28;20027;-66
2021/03/13 03:47:08;;;;;;;5.10;1.48;;;8.00;82.30;;;;;;5111479;28;20108;-66
2021/03/13 03:49:40;;;;;;;5.35;2.03;;;8.00;82.70;;;;;;5110677;28;20043;-66
2021/03/13 03:52:33;;;;;;;10.63;2.85;;;7.90;82.90;;;;;;5099421;28;20473;-66
2021/03/13 03:55:01;;;;;;;5.03;1.60;;;7.90;83.10;;;;;;5110428;28;20076;-66
2021/03/13 03:57:29;;;;;;;9.98;1.67;;;7.90;83.40;;;;;;5112818;28;20165;-66
2021/03/13 03:59:57;;;;;;;4.93;1.90;;;7.90;83.60;;;;;;5112619;28;20031;-66
2021/03/13 04:02:24;;;;;;;4.47;1.67;;;7.80;83.70;;;;;;5113032;28;20475;-66
2021/03/13 04:04:53;;;;;;;3.03;1.42;;;7.90;83.90;;;;;;5116485;28;20114;-66
2021/03/13 04:07:19;;;;;;;6.15;1.52;;;7.90;83.90;;;;;;5115520;28;20039;-66
2021/03/13 04:09:46;;;;;;;4.97;2.00;;;7.90;84.00;;;;;;5115543;28;20081;-66
2021/03/13 04:12:14;;;;;;;9.15;2.15;;;7.90;84.00;;;;;;5116064;28;20084;-66
2021/03/13 04:14:43;;;;;;;2.33;1.40;;;7.90;84.00;;;;;;5116259;28;20027;-66
2021/03/13 04:17:09;;;;;;;3.20;1.17;;;8.00;84.00;;;;;;5114007;28;20036;-66
2021/03/13 04:19:35;;;;;;;2.30;0.95;;;8.00;84.10;;;;;;5103127;28;20024;-66
2021/03/13 04:22:01;;;;;;;7.35;2.55;;;7.90;84.80;;;;;;5116177;28;20549;-66
2021/03/13 04:24:27;;;;;;;6.75;2.72;;;7.90;84.50;;;;;;5115199;28;20023;-66
2021/03/13 04:26:54;;;;;;;4.43;2.15;;;7.90;84.80;;;;;;5115956;28;20040;-66
2021/03/13 04:29:20;;;;;;;6.90;2.58;;;7.90;85.00;;;;;;5115545;28;20069;-66
2021/03/13 04:31:47;;;;;;;5.07;1.98;;;7.90;85.30;;;;;;5114839;28;20053;-66
2021/03/13 04:34:15;;;;;;;5.82;1.48;;;7.80;85.40;;;;;;5115617;28;20027;-66
2021/03/13 04:36:42;;;;;;;1.42;0.93;;;7.80;85.60;;;;;;5114862;28;20036;-66
2021/03/13 04:39:09;;;;;;;2.13;1.38;;;7.80;85.90;;;;;;5115117;28;20030;-67
2021/03/13 04:41:36;;;;;;;1.65;1.30;;;7.80;86.00;;;;;;5115056;28;20072;-67
2021/03/13 04:44:02;;;;;;;1.08;0.98;;;7.80;85.90;;;;;;5113286;28;20034;-66
2021/03/13 04:46:33;;;;;;;0.80;0.80;;;7.80;85.80;;;;;;5115191;28;20035;-66
2021/03/13 04:49:01;;;;;;;2.17;1.00;;;7.80;85.90;;;;;;5115472;28;20110;-66
2021/03/13 04:51:26;;;;;;;1.77;0.98;;;7.80;85.80;;;;;;5114653;28;20168;-66
2021/03/13 04:53:52;;;;;;;0.73;0.73;;;7.80;85.90;;;;;;5115188;28;20118;-66
2021/03/13 04:56:18;;;;;;;2.40;0.85;;;7.80;85.90;;;;;;5115183;28;20036;-66
2021/03/13 04:58:43;;;;;;;0.93;0.88;;;7.90;85.90;;;;;;5114052;28;20023;-66
2021/03/13 05:01:09;;;;;;;4.50;1.30;;;7.90;85.70;;;;;;5114597;28;20049;-66
2021/03/13 05:03:35;;;;;;;0.47;0.43;;;7.90;85.50;;;;;;5114649;28;20065;-66
2021/03/13 05:06:00;;;;;;;0.73;0.73;;;8.00;85.40;;;;;;5111326;28;20114;-66
2021/03/13 05:08:26;;;;;;;0.52;0.52;;;8.00;85.30;;;;;;5114989;28;20050;-66
2021/03/13 05:10:52;;;;;;;1.88;1.00;;;8.10;85.20;;;;;;5114831;28;20074;-66
2021/03/13 05:13:17;;;;;;;1.08;0.82;;;8.20;85.00;;;;;;5113441;28;20028;-66
2021/03/13 05:15:44;;;;;;;1.45;0.98;;;8.20;84.60;;;;;;5113266;28;20019;-66
2021/03/13 05:18:09;;;;;;;0.82;0.80;;;8.30;84.40;;;;;;5114984;28;20386;-66
2021/03/13 05:20:35;;;;;;;3.05;0.98;;;8.30;84.20;;;;;;5113771;28;20388;-66
2021/03/13 05:23:01;;;;;;;0.60;0.60;;;8.30;84.00;;;;;;5114883;28;20035;-66
2021/03/13 05:25:26;;;;;;;1.13;0.93;;;8.40;83.70;;;;;;5114616;28;20031;-66
2021/03/13 05:27:55;;;;;;;1.17;0.95;;;8.40;83.60;;;;;;5113780;28;20047;-66
2021/03/13 05:30:21;;;;;;;2.30;1.20;;;8.40;83.60;;;;;;5114449;28;20078;-66
2021/03/13 05:32:47;;;;;;;0.50;0.50;;;8.40;83.60;;;;;;5104455;28;20039;-66
2021/03/13 05:35:13;;;;;;;0.70;0.70;;;8.40;83.30;;;;;;5113697;28;20030;-66
2021/03/13 05:37:40;;;;;;;1.90;1.10;;;8.40;83.20;;;;;;5114632;28;20023;-66
2021/03/13 05:40:08;;;;;;;0.60;0.60;;;8.40;83.10;;;;;;5113576;28;20125;-67
2021/03/13 05:42:40;;;;;;;0.73;0.65;;;8.50;83.10;;;;;;5114268;28;20496;-66
2021/03/13 05:45:07;;;;;;;1.00;0.88;;;8.50;83.10;;;;;;5114394;28;20119;-66
2021/03/13 05:47:35;;;;;;;0.63;0.63;;;8.50;83.10;;;;;;5113782;28;20073;-67
2021/03/13 05:50:09;;;;;;;0.60;0.60;;;8.40;83.00;;;;;;5114051;28;20066;-66
2021/03/13 05:52:37;;;;;;;1.67;1.30;;;8.50;83.10;;;;;;5114267;28;20102;-66
2021/03/13 05:55:05;;;;;;;1.95;1.40;;;8.50;83.10;;;;;;5113787;28;20477;-67
2021/03/13 05:57:31;;;;;;;1.15;1.00;;;8.50;83.20;;;;;;5114305;28;20076;-67
2021/03/13 05:59:57;;;;;;;1.10;0.80;;;8.50;83.10;;;;;;5114041;28;20531;-66
2021/03/13 06:02:24;;;;;;;1.85;0.93;;;8.50;83.10;;;;;;5113214;28;20032;-66
2021/03/13 06:04:53;;;;;;;2.10;1.08;;;8.50;83.00;;;;;;5114047;28;20031;-66
2021/03/13 06:07:21;;;;;;;2.33;1.17;;;8.50;83.20;;;;;;5113755;28;20080;-67
2021/03/13 06:09:54;;;;;;;2.08;0.80;;;8.50;83.30;;;;;;5113423;28;20024;-66
2021/03/13 06:12:20;;;;;;;1.20;1.10;;;8.50;83.20;;;;;;5114020;28;20028;-66
2021/03/13 06:14:51;;;;;;;1.10;1.00;;;8.50;83.20;;;;;;5113809;28;20027;-66
2021/03/13 06:17:22;;;;;;;2.08;1.23;;;8.50;83.30;;;;;;5112888;28;20423;-66
2021/03/13 06:19:49;;;;;;;4.38;0.93;;;8.50;83.70;;;;;;5113635;28;20555;-67
2021/03/13 06:22:43;;;;;;;1.75;1.20;;;8.40;83.90;;;;;;5113062;28;20034;-67
2021/03/13 06:25:19;;;;;;;0.65;0.63;;;8.40;84.30;;;;;;5113104;28;20031;-66
2021/03/13 06:28:06;;;;;;;0.90;0.88;;;8.30;84.60;;;;;;5098949;28;20070;-66
2021/03/13 06:30:38;;;;;;;1.05;1.00;;;8.30;85.00;;;;;;5112682;28;20043;-66
2021/03/13 06:33:30;;;;;;;1.83;0.80;;;8.30;85.30;;;;;;5113485;28;20066;-66
2021/03/13 06:35:57;;;;;;;2.30;1.20;;;8.30;85.70;;;;;;5113445;28;20034;-69
2021/03/13 06:38:25;;;;;;;1.77;0.98;;;8.20;85.80;;;;;;5112461;28;20027;-68
2021/03/13 06:40:57;;;;;;;1.70;1.02;;;8.20;86.20;;;;;;5113025;28;20027;-67
2021/03/13 06:43:30;;;;;;;1.58;0.98;;;8.20;86.60;;;;;;5112725;28;20020;-67
2021/03/13 06:45:57;;;;;;;3.08;1.52;;;8.10;87.00;;;;;;5103412;28;20036;-66
2021/03/13 06:48:55;;;;;;;3.70;1.35;;;8.10;87.40;;;;;;5109782;28;20051;-70
2021/03/13 06:51:29;;;;;;;1.52;1.30;;;8.00;87.90;;;;;;5093990;28;20047;-65
2021/03/13 06:54:19;;;;;;;6.10;1.33;;;8.00;88.70;;;;;;5112605;28;20028;-66
2021/03/13 06:56:52;;;;;;;2.80;1.50;;;7.90;89.50;;;;;;5096282;28;20040;-66
2021/03/13 06:59:17;;;;;;;4.47;1.67;;;7.80;90.00;;;;;;5106613;28;20027;-66
2021/03/13 07:01:43;;;;;;;1.42;1.33;;;7.80;90.30;;;;;;5112887;28;20023;-66
2021/03/13 07:04:09;;;;;;;2.88;1.55;;;7.80;90.50;;;;;;5105466;28;20081;-66
2021/03/13 07:06:45;;;;;;;1.90;1.40;;;7.70;90.70;;;;;;5112337;28;20047;-67
2021/03/13 07:09:11;;;;;;;2.83;1.38;;;7.70;90.80;;;;;;5112461;28;20528;-68
2021/03/13 07:11:37;;;;;;;2.17;1.33;;;7.70;90.80;;;;;;5103072;28;20044;-68
2021/03/13 07:14:03;;;;;;;3.00;1.40;;;7.60;91.00;;;;;;5112824;28;20038;-67
2021/03/13 07:16:31;;;;;;;3.13;1.40;;;7.60;91.30;;;;;;5113060;28;20093;-67
2021/03/13 07:18:57;;;;;;;2.53;1.38;;;7.40;91.50;;;;;;5112126;28;20473;-68
2021/03/13 07:21:33;;;;;;;2.58;1.35;;;7.30;91.80;;;;;;5112607;28;20012;-67
2021/03/13 07:24:02;;;;;;;4.57;1.20;;;7.20;91.90;;;;;;5112216;28;20383;-67
2021/03/13 07:26:39;;;;;;;3.42;1.30;;;7.00;91.80;;;;;;5111599;28;20834;-67
2021/03/13 07:29:06;;;;;;;2.50;1.17;;;6.80;91.90;;;;;;5098256;28;20077;-67
2021/03/13 07:31:41;;;;;;;3.08;1.50;;;6.80;92.00;;;;;;5112370;28;20507;-67
2021/03/13 07:34:16;;;;;;;4.47;1.40;;;6.80;91.90;;;;;;5112120;28;20102;-67
2021/03/13 07:36:45;;;;;;;6.93;1.17;;;6.90;91.70;;;;;;5110488;28;20027;-68
2021/03/13 07:39:16;;;;;;;4.22;1.30;;;7.00;91.50;;;;;;5115967;28;20411;-67
2021/03/13 07:41:57;;;;;;;2.35;1.23;;;7.00;91.30;;;;;;5115253;28;20032;-67
2021/03/13 07:44:23;;;;;;;3.90;1.48;;;7.10;91.10;;;;;;5115044;28;20027;-67
2021/03/13 07:46:50;;;;;;;7.43;1.20;;;7.10;90.90;;;;;;5115256;27;20034;-69
2021/03/13 07:49:16;;;;;;;5.63;1.83;;;7.20;90.90;;;;;;5116078;28;20103;-68
2021/03/13 07:51:46;;;;;;;7.38;1.83;;;7.20;90.70;;;;;;5115687;28;20063;-68
2021/03/13 07:54:13;;;;;;;7.75;2.17;;;7.10;90.80;;;;;;5101304;28;20027;-67
2021/03/13 07:56:41;;;;;;;6.43;1.70;;;7.10;91.00;;;;;;5099231;28;20050;-66
2021/03/13 07:59:42;;;;;;;10.70;2.30;;;7.00;91.10;;;;;;5097612;28;20086;-67
2021/03/13 08:02:08;;;;;;;10.40;2.70;;;7.00;91.30;;;;;;5097418;28;20096;-67
2021/03/13 08:04:42;;;;;;;10.00;1.80;;;7.00;91.40;;;;;;5094382;28;20090;-67
2021/03/13 08:07:09;;;;;;;11.57;2.47;;;7.00;91.40;;;;;;5112853;28;20027;-67
2021/03/13 08:09:44;;;;;;;17.90;2.70;;;7.00;91.50;;;;;;5115434;28;20096;-67
2021/03/13 08:12:11;;;;;;;13.73;3.65;;;7.00;91.50;;;;;;5115945;28;20138;-67
2021/03/13 08:14:38;;;;;;;15.43;2.47;;;7.00;91.40;;;;;;5116183;28;20515;-67
2021/03/13 08:17:13;;;;;;;11.38;3.05;;;7.00;91.50;;;;;;5114843;28;20089;-66
2021/03/13 08:19:44;;;;;;;11.82;3.15;;;7.10;91.30;;;;;;5116135;28;20085;-67
2021/03/13 08:22:22;;;;;;;10.32;2.83;;;7.10;91.30;;;;;;5114314;28;20030;-67
2021/03/13 08:24:53;;;;;;;13.40;2.63;;;7.20;91.30;;;;;;5116021;28;20390;-68
2021/03/13 08:27:40;;;;;;;19.27;3.50;;;7.20;91.10;;;;;;5114946;28;20038;-73
2021/03/13 08:30:19;;;;;;;8.93;3.20;;;7.20;91.10;;;;;;5106834;28;20077;-66
2021/03/13 08:33:02;;;;;;;13.70;4.05;;;7.20;91.20;;;;;;5112373;28;20051;-66
2021/03/13 08:35:47;;;;;;;11.55;3.67;;;7.20;91.00;;;;;;5115917;28;20168;-65
2021/03/13 08:38:16;;;;;;;14.45;2.88;;;7.20;91.10;;;;;;5109106;28;20130;-65
2021/03/13 08:40:48;;;;;;;16.42;3.78;;;7.20;91.20;;;;;;5096866;28;20040;-65
2021/03/13 08:43:37;;;;;;;10.05;3.03;;;7.20;91.00;;;;;;5100531;28;20020;-66
2021/03/13 08:46:04;;;;;;;14.98;3.28;;;7.20;90.80;;;;;;5099116;28;20028;-66
2021/03/13 08:48:58;;;;;;;12.70;2.92;;;7.20;90.80;;;;;;5095569;28;20114;-66
2021/03/13 08:51:27;;;;;;;17.40;3.75;;;7.20;90.60;;;;;;5094197;28;20475;-65
2021/03/13 08:53:54;;;;;;;11.75;3.38;;;7.30;90.60;;;;;;5098267;28;20039;-65
2021/03/13 08:56:41;;;;;;;12.30;3.10;;;7.30;90.50;;;;;;5094274;28;20035;-65
2021/03/13 08:59:11;;;;;;;18.70;3.53;;;7.40;90.30;;;;;;5095666;28;20028;-65
2021/03/13 09:01:37;;;;;;;15.80;3.55;;;7.40;90.20;;;;;;5095665;28;20028;-66
2021/03/13 09:04:04;;;;;;;20.25;4.05;;;7.40;90.40;;;;;;5099271;28;20399;-66
2021/03/13 09:06:29;;;;;;;14.95;3.75;;;7.40;90.30;;;;;;5096882;28;20103;-66
2021/03/13 09:09:16;;;;;;;16.52;3.33;;;7.50;90.30;;;;;;5100960;28;20534;-66
2021/03/13 09:11:58;;;;;;;21.52;3.47;;;7.50;90.30;;;;;;5098049;28;20099;-67
2021/03/13 09:14:25;;;;;;;13.27;3.80;;;7.50;90.10;;;;;;5103816;28;20020;-66
2021/03/13 09:16:52;;;;;;;17.92;4.18;;;7.60;90.00;;;;;;5104543;28;20467;-65
2021/03/13 09:19:18;;;;;;;14.07;3.67;;;7.60;90.00;;;;;;5094103;28;20094;-66
2021/03/13 09:21:54;;;;;;;14.02;3.88;;;7.60;89.70;;;;;;5093632;28;20020;-66
2021/03/13 09:24:26;;;;;;;11.50;2.85;;;7.70;89.90;;;;;;5096013;28;20386;-66
2021/03/13 09:26:56;;;;;;;11.93;2.80;;;7.80;89.80;;;;;;5094622;28;20023;-66
2021/03/13 09:29:29;;;;;;;11.77;2.40;;;7.80;89.80;;;;;;5099670;28;20043;-65
2021/03/13 09:32:09;;;;;;;14.68;3.65;;;7.90;89.90;;;;;;5095162;28;20487;-66
2021/03/13 09:34:45;;;;;;;10.32;3.05;;;7.90;89.60;;;;;;5095293;28;20028;-66
2021/03/13 09:37:13;;;;;;;20.92;3.67;;;8.00;89.10;;;;;;5103699;28;20031;-67
2021/03/13 09:39:40;;;;;;;16.23;3.30;;;8.00;88.60;;;;;;5094035;28;20096;-66
2021/03/13 09:42:22;;;;;;;15.10;3.58;;;8.00;88.30;;;;;;5095076;28;20028;-67
2021/03/13 09:44:49;;;;;;;18.52;3.88;;;8.00;88.30;;;;;;5097004;28;20162;-66
2021/03/13 09:47:29;;;;;;;15.30;3.45;;;8.00;88.10;;;;;;5096372;28;20028;-66
2021/03/13 09:49:58;;;;;;;11.52;2.78;;;8.00;87.80;;;;;;5090814;28;20089;-66
2021/03/13 09:52:24;;;;;;;11.05;3.10;;;8.00;87.60;;;;;;5093684;28;20035;-66
2021/03/13 09:54:57;;;;;;;10.75;2.55;;;8.10;87.90;;;;;;5092241;28;20495;-65
2021/03/13 09:57:26;;;;;;;18.98;2.85;;;8.10;86.90;;;;;;5091246;28;20395;-65
2021/03/13 09:59:52;;;;;;;12.60;2.72;;;8.20;87.00;;;;;;5095979;28;20031;-66
2021/03/13 10:02:20;;;;;;;17.48;2.70;;;8.30;87.10;;;;;;5092390;28;20490;-66
2021/03/13 10:04:50;;;;;;;12.80;2.70;;;8.40;86.80;;;;;;5092458;28;20055;-66
2021/03/13 10:07:17;;;;;;;8.75;3.05;;;8.40;86.50;;;;;;5094661;28;20105;-65
2021/03/13 10:10:03;;;;;;;20.65;3.83;;;8.50;86.00;;;;;;5091851;28;20036;-65
2021/03/13 10:12:30;;;;;;;17.25;3.45;;;8.40;86.20;;;;;;5093755;28;20043;-66
2021/03/13 10:15:17;;;;;;;14.23;3.47;;;8.40;85.80;;;;;;5097750;28;20020;-66
2021/03/13 10:18:03;;;;;;;11.27;2.80;;;8.40;85.90;;;;;;5092356;28;20123;-66
2021/03/13 10:20:33;;;;;;;13.30;2.92;;;8.30;85.70;;;;;;5095108;28;20028;-66
2021/03/13 10:23:31;;;;;;;17.05;3.38;;;8.30;86.10;;;;;;5093853;28;20024;-66
2021/03/13 10:26:11;;;;;;;15.10;3.58;;;8.30;85.20;;;;;;5093717;28;20517;-66
2021/03/13 10:28:44;;;;;;;11.63;2.70;;;8.40;85.20;;;;;;5095316;28;20042;-66
2021/03/13 10:31:24;;;;;;;14.43;2.58;;;8.30;84.20;;;;;;5093003;28;20036;-66
2021/03/13 10:33:54;;;;;;;15.55;3.05;;;8.30;84.70;;;;;;5095330;28;20111;-66
2021/03/13 10:36:29;;;;;;;12.00;3.22;;;8.40;85.30;;;;;;5094979;28;20499;-67
2021/03/13 10:38:57;;;;;;;12.55;3.63;;;8.50;84.30;;;;;;5110677;28;20411;-67
2021/03/13 10:41:23;;;;;;;9.65;2.60;;;8.50;83.90;;;;;;5110431;28;20039;-67
2021/03/13 10:43:53;;;;;;;11.80;3.13;;;8.50;83.90;;;;;;5109835;28;20055;-67
2021/03/13 10:46:20;;;;;;;14.40;3.08;;;8.60;83.90;;;;;;5110058;28;20038;-64
2021/03/13 10:48:46;;;;;;;12.18;2.85;;;8.60;83.90;;;;;;5110578;28;20383;-64
2021/03/13 10:51:31;;;;;;;12.18;3.88;;;8.70;83.90;;;;;;5110093;28;20023;-64
2021/03/13 10:54:01;;;;;;;11.80;3.47;;;8.70;84.20;;;;;;5109713;28;20031;-64
2021/03/13 10:56:43;;;;;;;13.52;2.75;;;8.70;83.10;;;;;;5110929;28;20122;-64
2021/03/13 10:59:10;;;;;;;14.23;3.17;;;8.60;83.70;;;;;;5105969;28;20031;-64
2021/03/13 11:01:36;;;;;;;19.60;3.33;;;8.70;84.20;;;;;;5104449;28;20047;-64
2021/03/13 11:04:02;;;;;;;11.13;2.83;;;8.70;84.00;;;;;;5093010;28;20020;-67
2021/03/13 11:06:32;;;;;;;10.40;2.88;;;8.70;84.00;;;;;;5090746;28;20540;-67
2021/03/13 11:09:00;;;;;;;12.63;2.47;;;8.70;84.20;;;;;;5090840;28;20035;-69
2021/03/13 11:11:26;;;;;;;11.25;3.22;;;8.70;84.10;;;;;;5091962;28;20039;-69
2021/03/13 11:13:56;;;;;;;10.63;2.83;;;8.70;83.80;;;;;;5094366;28;20020;-68
2021/03/13 11:16:22;;;;;;;8.27;1.90;;;8.80;84.60;;;;;;5096806;28;20020;-66
2021/03/13 11:18:56;;;;;;;11.38;2.40;;;8.70;82.60;;;;;;5099375;28;20028;-66
2021/03/13 11:21:26;;;;;;;8.55;2.13;;;8.60;82.70;;;;;;5098443;28;20024;-66
2021/03/13 11:23:53;;;;;;;10.13;2.90;;;8.60;83.20;;;;;;5117031;28;20028;-67
2021/03/13 11:26:20;;;;;;;10.07;2.53;;;8.60;83.70;;;;;;5116431;28;20026;-67
2021/03/13 11:28:46;;;;;;;13.63;2.97;;;8.60;84.00;;;;;;5117294;28;20027;-66
2021/03/13 11:31:12;;;;;;;12.85;3.55;;;8.60;84.40;;;;;;5116750;28;20075;-66
2021/03/13 11:33:38;;;;;;;11.25;3.22;;;8.60;84.80;;;;;;5116224;28;20051;-68
2021/03/13 11:36:05;;;;;;;5.45;1.40;;;8.70;84.40;;;;;;5116679;28;20146;-66
2021/03/13 11:38:32;;;;;;;7.10;2.00;;;8.70;84.00;;;;;;5116180;28;20528;-67
2021/03/13 11:40:59;;;;;;;9.48;1.90;;;8.70;83.40;;;;;;5116062;28;20508;-66
2021/03/13 11:43:25;;;;;;;10.57;2.25;;;8.70;83.70;;;;;;5116766;28;20026;-66
2021/03/13 11:45:51;;;;;;;5.07;1.48;;;8.70;83.70;;;;;;5115859;28;20110;-71
2021/03/13 11:48:18;;;;;;;7.43;1.95;;;8.80;83.60;;;;;;5116329;28;20019;-68
2021/03/13 11:50:45;;;;;;;15.43;3.83;;;8.80;83.90;;;;;;5116400;28;20043;-69
2021/03/13 11:53:10;;;;;;;11.25;2.60;;;8.80;83.50;;;;;;5115805;28;20360;-67
2021/03/13 11:55:36;;;;;;;12.38;2.63;;;8.70;83.30;;;;;;5115962;28;20106;-68
2021/03/13 11:58:02;;;;;;;10.52;2.47;;;8.70;83.90;;;;;;5116138;28;20072;-66
2021/03/13 12:00:28;;;;;;;16.25;3.83;;;8.70;83.70;;;;;;5104348;28;20024;-66
2021/03/13 12:02:54;;;;;;;17.35;3.47;;;8.70;83.10;;;;;;5116431;28;20459;-66
2021/03/13 12:05:20;;;;;;;10.85;3.30;;;8.70;83.10;;;;;;5107517;28;20024;-69
2021/03/13 12:07:46;;;;;;;6.13;2.03;;;8.70;83.00;;;;;;5095806;28;20023;-68
2021/03/13 12:10:13;;;;;;;10.75;3.05;;;8.70;83.40;;;;;;5097669;28;20111;-68
2021/03/13 12:12:41;;;;;;;9.73;2.78;;;8.70;82.70;;;;;;5102458;28;20039;-67
2021/03/13 12:15:08;;;;;;;7.55;2.40;;;8.70;83.10;;;;;;5099177;28;20023;-69
2021/03/13 12:17:35;;;;;;;13.73;3.22;;;8.70;83.50;;;;;;5106077;28;20051;-70
2021/03/13 12:20:03;;;;;;;14.93;3.35;;;8.70;83.40;;;;;;5100689;28;20104;-66
2021/03/13 12:22:29;;;;;;;14.50;2.60;;;8.70;83.00;;;;;;5104147;28;20065;-73
2021/03/13 12:24:55;;;;;;;10.35;2.95;;;8.70;82.70;;;;;;5110698;28;20089;-67
2021/03/13 12:27:21;;;;;;;12.00;2.85;;;8.80;82.40;;;;;;5110474;28;20027;-68
2021/03/13 12:29:47;;;;;;;8.80;2.50;;;8.80;82.00;;;;;;5109909;28;20107;-68
2021/03/13 12:32:13;;;;;;;11.98;3.40;;;8.80;82.00;;;;;;5109156;28;20120;-69
2021/03/13 12:34:39;;;;;;;10.27;3.03;;;8.80;82.20;;;;;;5105498;28;20030;-68
2021/03/13 12:37:07;;;;;;;9.00;2.38;;;8.80;83.10;;;;;;5095434;28;20036;-67
2021/03/13 12:39:33;;;;;;;10.35;3.10;;;8.90;82.40;;;;;;5099221;28;20471;-67
2021/03/13 12:41:59;;;;;;;11.07;2.67;;;8.80;82.70;;;;;;5099755;28;20024;-68
2021/03/13 12:44:28;;;;;;;9.35;2.30;;;8.90;83.40;;;;;;5094507;28;20031;-68
2021/03/13 12:46:54;;;;;;;9.75;2.83;;;8.90;83.30;;;;;;5100244;28;20101;-68
2021/03/13 12:49:20;;;;;;;10.05;2.50;;;9.00;83.00;;;;;;5093352;28;20479;-67
2021/03/13 12:51:45;;;;;;;12.70;2.28;;;9.10;82.90;;;;;;5094227;28;20039;-67
2021/03/13 12:54:11;;;;;;;11.88;3.00;;;9.10;82.90;;;;;;5096032;28;20024;-67
2021/03/13 12:56:37;;;;;;;9.80;2.40;;;9.10;82.80;;;;;;5094839;28;20036;-68
2021/03/13 12:59:03;;;;;;;7.90;2.22;;;9.10;83.70;;;;;;5103347;28;20020;-68
2021/03/13 13:01:38;;;;;;;10.90;2.13;;;9.10;84.10;;;;;;5095846;28;20030;-68
2021/03/13 13:04:03;;;;;;;10.25;2.65;;;9.10;84.30;;;;;;5093901;28;20023;-68
2021/03/13 13:06:32;;;;;;;13.10;3.50;;;9.10;83.80;;;;;;5090406;28;20518;-68
2021/03/13 13:09:00;;;;;;;6.85;2.47;;;9.00;82.60;;;;;;5106030;28;20032;-68